Time;durP1;ratioP1;P1;durP2;ratioP2;P2;SDS_P1;SDS_P2;PMS_P1;PMS_P2;Temp;Humidity;BMP_temperature;BMP_pressure;BME280_temperature;BME280_humidity;BME280_pressure;Samples;Min_cycle;Max_cycle;Signal;HPM_P1;HPM_P2
2022/03/07 00:00:48;;;;;;;5.22;3.70;;;;;;;19.55;38.35;97364.94;10088637;29;20053;-58
2022/03/07 00:06:07;;;;;;;5.38;3.85;;;;;;;19.54;38.50;97368.78;10088069;29;20104;-58
2022/03/07 00:11:28;;;;;;;4.47;3.40;;;;;;;19.54;38.54;97379.56;10099874;29;20052;-57
2022/03/07 00:16:48;;;;;;;5.35;3.42;;;;;;;19.52;38.51;97373.69;10087018;29;20057;-58
2022/03/07 00:22:07;;;;;;;5.40;3.33;;;;;;;19.52;38.46;97367.47;10094029;29;20056;-57
2022/03/07 00:27:27;;;;;;;4.45;3.40;;;;;;;19.51;38.57;97377.47;10089717;29;20128;-57
2022/03/07 00:32:46;;;;;;;4.80;3.35;;;;;;;19.50;38.39;97375.91;10099139;29;20489;-58
2022/03/07 00:38:06;;;;;;;4.63;3.55;;;;;;;19.49;38.50;97381.63;10097685;29;20080;-58
2022/03/07 00:43:26;;;;;;;3.63;3.33;;;;;;;19.47;38.54;97375.72;10099672;29;20424;-58
2022/03/07 00:48:46;;;;;;;4.20;3.30;;;;;;;19.46;38.46;97376.81;10100506;29;20053;-58
2022/03/07 00:54:05;;;;;;;5.35;3.33;;;;;;;19.44;38.42;97369.00;10099872;29;20104;-58
2022/03/07 00:59:25;;;;;;;5.10;3.45;;;;;;;19.43;38.49;97375.53;10100428;29;20056;-58
2022/03/07 01:04:46;;;;;;;4.05;3.33;;;;;;;19.41;38.42;97369.66;10098583;29;20128;-58
2022/03/07 01:10:06;;;;;;;4.70;3.40;;;;;;;19.40;38.33;97372.66;10098536;29;20052;-58
2022/03/07 01:15:25;;;;;;;3.92;3.17;;;;;;;19.38;38.33;97367.56;10085567;29;20060;-58
2022/03/07 01:20:45;;;;;;;4.88;3.30;;;;;;;19.36;38.38;97362.44;10090018;29;20056;-57
2022/03/07 01:26:05;;;;;;;4.78;3.60;;;;;;;19.35;38.50;97360.06;10098366;29;20057;-57
2022/03/07 01:31:25;;;;;;;4.40;3.40;;;;;;;19.33;38.33;97354.19;10092447;29;20052;-58
2022/03/07 01:36:44;;;;;;;5.35;3.20;;;;;;;19.32;38.33;97353.38;10098476;29;20672;-58
2022/03/07 01:42:04;;;;;;;3.60;2.90;;;;;;;19.30;38.42;97354.78;10095705;29;20060;-58
2022/03/07 01:47:25;;;;;;;5.00;3.42;;;;;;;19.28;38.48;97352.41;10099980;29;20045;-58
2022/03/07 01:52:48;;;;;;;4.38;3.33;;;;;;;19.27;38.45;97344.63;10096100;29;20044;-58
2022/03/07 01:58:08;;;;;;;3.92;2.97;;;;;;;19.25;38.32;97339.53;10088755;29;20064;-57
2022/03/07 02:03:28;;;;;;;4.15;3.10;;;;;;;19.25;38.49;97336.00;10090290;29;20071;-57
2022/03/07 02:08:49;;;;;;;3.28;2.92;;;;;;;19.23;38.35;97340.91;10081097;29;20714;-57
2022/03/07 02:14:18;;;;;;;4.00;2.72;;;;;;;19.22;38.33;97333.94;10094749;29;20045;-57
2022/03/07 02:19:42;;;;;;;3.40;2.80;;;;;;;19.19;38.21;97327.25;10084554;29;20048;-58
2022/03/07 02:25:03;;;;;;;3.53;2.90;;;;;;;19.19;38.23;97329.13;10088490;29;20060;-58
2022/03/07 02:30:22;;;;;;;3.38;2.88;;;;;;;19.16;38.43;97328.66;10083886;29;20053;-57
2022/03/07 02:35:43;;;;;;;3.05;2.67;;;;;;;19.15;38.41;97328.94;10091545;29;20665;-57
2022/03/07 02:41:03;;;;;;;3.80;2.80;;;;;;;19.13;38.40;97321.19;10097702;29;20253;-58
2022/03/07 02:46:23;;;;;;;3.75;2.88;;;;;;;19.11;38.34;97322.56;10090268;29;20060;-58
2022/03/07 02:51:42;;;;;;;3.67;2.90;;;;;;;19.10;38.21;97329.88;10103368;29;20061;-57
2022/03/07 02:57:02;;;;;;;3.13;2.75;;;;;;;19.10;38.25;97337.19;10086239;29;20045;-58
2022/03/07 03:02:24;;;;;;;3.15;2.75;;;;;;;19.08;38.29;97340.19;10095198;29;20181;-57
2022/03/07 03:07:43;;;;;;;3.13;2.60;;;;;;;19.06;38.20;97337.00;10093938;29;20412;-58
2022/03/07 03:13:02;;;;;;;3.78;2.70;;;;;;;19.05;38.27;97340.00;10094133;29;20063;-57
2022/03/07 03:18:23;;;;;;;3.17;2.70;;;;;;;19.03;38.19;97334.91;10092883;29;20517;-58
2022/03/07 03:23:43;;;;;;;3.28;2.65;;;;;;;19.01;38.34;97342.53;10094537;29;20078;-58
2022/03/07 03:29:02;;;;;;;3.30;2.63;;;;;;;19.00;38.30;97335.53;10094302;29;21439;-57
2022/03/07 03:34:22;;;;;;;2.80;2.58;;;;;;;18.99;38.20;97331.22;10085621;29;20493;-57
2022/03/07 03:39:42;;;;;;;3.35;2.53;;;;;;;18.99;38.09;97335.84;10091809;29;20414;-58
2022/03/07 03:45:05;;;;;;;3.90;2.90;;;;;;;18.97;38.19;97336.16;10091528;29;20088;-58
2022/03/07 03:50:24;;;;;;;3.17;2.60;;;;;;;18.95;38.36;97349.97;10090701;29;20512;-58
2022/03/07 03:55:44;;;;;;;4.25;2.90;;;;;;;18.94;38.04;97348.38;10092798;29;20060;-57
2022/03/07 04:01:03;;;;;;;2.70;2.25;;;;;;;18.93;38.41;97346.78;10091914;29;20060;-58
2022/03/07 04:06:23;;;;;;;2.50;2.30;;;;;;;18.92;38.23;97347.09;10092899;29;20060;-57
2022/03/07 04:11:42;;;;;;;3.53;2.70;;;;;;;18.89;38.24;97334.97;10092047;29;20060;-58
2022/03/07 04:17:02;;;;;;;3.85;2.60;;;;;;;18.89;38.29;97342.28;10093401;29;20057;-58
2022/03/07 04:22:22;;;;;;;3.53;2.50;;;;;;;18.87;38.08;97355.28;10097497;29;20553;-58
2022/03/07 04:27:41;;;;;;;2.67;2.33;;;;;;;18.84;38.20;97347.81;10091276;29;20060;-57
2022/03/07 04:33:01;;;;;;;2.55;2.20;;;;;;;18.84;38.11;97347.81;10092106;29;20093;-58
2022/03/07 04:38:24;;;;;;;2.70;2.42;;;;;;;18.84;38.07;97356.72;10093312;29;20453;-58
2022/03/07 04:43:44;;;;;;;2.75;2.38;;;;;;;18.80;38.07;97347.63;10093703;29;20057;-58
2022/03/07 04:49:04;;;;;;;3.05;2.50;;;;;;;18.81;38.13;97359.22;10092155;29;20071;-57
2022/03/07 04:54:24;;;;;;;2.45;2.25;;;;;;;18.78;38.13;97347.91;10092824;29;20071;-58
2022/03/07 04:59:45;;;;;;;2.88;2.58;;;;;;;18.77;38.23;97343.59;10097980;29;20077;-58
2022/03/07 05:05:05;;;;;;;2.63;2.40;;;;;;;18.76;38.09;97344.72;10099372;29;20115;-58
2022/03/07 05:10:24;;;;;;;2.90;2.30;;;;;;;18.75;38.16;97342.31;10094622;29;20061;-57
2022/03/07 05:15:47;;;;;;;3.00;2.70;;;;;;;18.74;38.52;97344.22;10097854;29;20485;-58
2022/03/07 05:21:06;;;;;;;3.20;2.50;;;;;;;18.74;38.63;97341.50;10094799;29;20495;-56
2022/03/07 05:26:26;;;;;;;2.88;2.58;;;;;;;18.76;39.06;97336.59;10102362;29;20049;-58
2022/03/07 05:31:45;;;;;;;2.58;2.20;;;;;;;18.77;39.00;97343.59;10096116;29;20080;-57
2022/03/07 05:37:05;;;;;;;3.65;2.35;;;;;;;18.81;38.87;97361.91;10098238;29;20431;-57
2022/03/07 05:42:24;;;;;;;3.08;2.05;;;;;;;18.81;38.91;97343.81;10098488;29;20053;-57
2022/03/07 05:47:43;;;;;;;2.25;2.05;;;;;;;18.83;39.05;97347.00;10097152;29;20076;-58
2022/03/07 05:53:03;;;;;;;3.95;2.00;;;;;;;18.88;39.17;97373.88;10098126;29;20064;-56
2022/03/07 05:58:22;;;;;;;3.25;2.00;;;;;;;18.91;39.50;97359.75;10095272;29;20064;-58
2022/03/07 06:03:42;;;;;;;7.55;5.88;;;;;;;18.53;28.81;97378.94;10098222;29;20048;-57
2022/03/07 06:09:01;;;;;;;5.47;4.70;;;;;;;18.14;31.29;97371.41;10096528;29;20557;-57
2022/03/07 06:14:21;;;;;;;12.98;4.55;;;;;;;18.37;35.30;97389.28;10095410;29;20411;-58
2022/03/07 06:19:40;;;;;;;26.45;6.28;;;;;;;18.37;35.30;97389.28;10089389;29;20057;-58
2022/03/07 06:25:00;;;;;;;17.58;5.05;;;;;;;18.73;35.74;97391.19;10093922;29;20056;-58
2022/03/07 06:30:20;;;;;;;12.52;4.78;;;;;;;18.84;35.74;97393.72;10093065;29;20428;-58
2022/03/07 06:35:40;;;;;;;12.52;5.10;;;;;;;18.91;36.00;97400.25;10089747;29;20056;-58
2022/03/07 06:40:59;;;;;;;12.00;4.50;;;;;;;18.99;35.90;97409.53;10091762;29;20405;-57
2022/03/07 06:46:19;;;;;;;12.18;4.63;;;;;;;19.05;35.97;97419.13;10077516;29;20087;-58
2022/03/07 06:51:38;;;;;;;10.77;4.70;;;;;;;19.11;36.25;97412.50;10091916;29;20412;-58
2022/03/07 06:56:58;;;;;;;9.57;4.28;;;;;;;19.16;36.37;97420.47;10094775;29;20067;-58
2022/03/07 07:02:17;;;;;;;10.52;4.63;;;;;;;19.20;36.53;97419.88;10099024;29;20045;-58
2022/03/07 07:07:38;;;;;;;9.15;4.65;;;;;;;19.22;36.59;97423.06;10088427;29;20110;-58
2022/03/07 07:12:57;;;;;;;11.68;4.32;;;;;;;19.24;36.75;97431.66;10097591;29;20044;-58
2022/03/07 07:18:17;;;;;;;7.45;3.97;;;;;;;19.26;36.76;97438.34;10091280;29;20064;-58
2022/03/07 07:23:37;;;;;;;8.48;4.50;;;;;;;19.28;36.77;97440.75;10091451;29;20057;-58
2022/03/07 07:28:56;;;;;;;10.60;4.45;;;;;;;19.31;36.83;97443.63;10093095;29;20052;-58
2022/03/07 07:34:15;;;;;;;7.25;3.85;;;;;;;19.33;37.20;97454.16;10085591;29;20061;-58
2022/03/07 07:39:35;;;;;;;10.30;4.97;;;;;;;19.34;37.11;97458.44;10093351;29;20056;-58
2022/03/07 07:44:54;;;;;;;10.38;4.47;;;;;;;19.38;37.34;97469.44;10089631;29;20053;-58
2022/03/07 07:50:14;;;;;;;9.68;4.10;;;;;;;19.39;37.22;97469.13;10099275;29;20060;-58
2022/03/07 07:55:33;;;;;;;8.05;3.80;;;;;;;19.39;37.42;97469.13;10094256;29;20113;-58
2022/03/07 08:00:52;;;;;;;7.95;4.05;;;;;;;19.41;37.59;97480.44;10091192;29;20048;-58
2022/03/07 08:06:11;;;;;;;7.40;3.70;;;;;;;19.40;37.63;97475.31;10095680;29;20049;-58
2022/03/07 08:11:31;;;;;;;8.45;3.92;;;;;;;19.41;37.71;97477.72;10093603;29;20064;-58
2022/03/07 08:16:50;;;;;;;7.32;3.60;;;;;;;19.41;37.56;97485.81;10094018;29;20068;-58
2022/03/07 08:22:09;;;;;;;8.02;3.53;;;;;;;19.42;37.75;97498.22;10093605;29;20057;-58
2022/03/07 08:27:28;;;;;;;5.38;3.22;;;;;;;19.42;37.63;97510.94;10091975;29;20113;-58
2022/03/07 08:32:49;;;;;;;5.43;3.53;;;;;;;19.42;37.71;97506.31;10101055;29;20045;-58
2022/03/07 08:38:08;;;;;;;6.78;3.50;;;;;;;19.42;37.67;97509.03;10094090;29;20469;-58
2022/03/07 08:43:28;;;;;;;5.88;3.05;;;;;;;19.42;37.46;97500.91;10093138;29;20042;-58
2022/03/07 08:48:49;;;;;;;5.70;3.28;;;;;;;19.42;37.61;97500.91;10098614;29;20124;-58
2022/03/07 08:54:10;;;;;;;5.63;3.15;;;;;;;19.42;37.50;97495.50;10097075;29;20044;-58
2022/03/07 08:59:29;;;;;;;5.40;3.17;;;;;;;19.42;37.88;97492.81;10090759;29;20059;-58
2022/03/07 09:04:48;;;;;;;5.63;3.13;;;;;;;19.43;37.71;97489.03;10094884;29;20065;-58
2022/03/07 09:10:08;;;;;;;5.90;2.88;;;;;;;19.43;37.91;97486.31;10093944;29;20399;-58
2022/03/07 09:15:28;;;;;;;4.38;3.10;;;;;;;19.42;37.67;97482.00;10099634;29;20056;-58
2022/03/07 09:20:48;;;;;;;5.43;3.17;;;;;;;19.42;37.75;97473.91;10074050;29;20493;-58
2022/03/07 09:26:11;;;;;;;4.60;2.97;;;;;;;19.40;37.81;97476.13;10096915;29;20044;-58
2022/03/07 09:31:30;;;;;;;5.72;2.90;;;;;;;19.41;37.51;97476.94;10089772;29;20052;-58
2022/03/07 09:36:50;;;;;;;6.28;2.88;;;;;;;19.41;37.44;97471.53;10085764;29;20053;-58
2022/03/07 09:42:09;;;;;;;5.35;2.83;;;;;;;19.38;37.54;97458.63;10093508;29;20049;-58
2022/03/07 09:47:30;;;;;;;5.10;2.90;;;;;;;19.38;37.61;97454.00;10098327;29;20511;-58
2022/03/07 09:52:49;;;;;;;6.18;2.88;;;;;;;19.38;37.45;97461.31;10083955;29;20421;-58
2022/03/07 09:58:09;;;;;;;4.20;2.70;;;;;;;19.37;37.42;97463.22;10087074;29;20481;-58
2022/03/07 10:03:29;;;;;;;5.13;2.38;;;;;;;19.38;37.52;97464.03;10096051;29;20045;-58
2022/03/07 10:08:55;;;;;;;5.22;2.38;;;;;;;19.36;37.48;97465.13;10084834;29;20540;-58
2022/03/07 10:14:14;;;;;;;4.47;2.63;;;;;;;19.35;37.56;97462.75;10095181;29;20064;-58
2022/03/07 10:19:43;;;;;;;4.20;2.45;;;;;;;19.34;37.57;97456.53;10088034;29;20065;-58
2022/03/07 10:25:08;;;;;;;4.30;2.60;;;;;;;19.33;37.48;97454.16;10081326;29;20497;-58
2022/03/07 10:30:31;;;;;;;3.10;2.22;;;;;;;19.32;37.38;97447.94;10087689;29;20067;-58
2022/03/07 10:35:53;;;;;;;3.20;2.47;;;;;;;19.31;37.51;97442.84;10088321;29;20064;-58
2022/03/07 10:41:13;;;;;;;2.88;2.45;;;;;;;19.31;37.58;97451.75;10095826;29;20056;-58
2022/03/07 10:46:32;;;;;;;4.10;2.28;;;;;;;19.29;37.45;97445.84;10108100;29;20109;-57
2022/03/07 10:51:53;;;;;;;5.00;2.33;;;;;;;19.29;37.46;97431.56;10096409;29;20061;-58
2022/03/07 10:57:13;;;;;;;3.13;2.15;;;;;;;19.29;37.49;97426.16;10095231;29;20053;-58
2022/03/07 11:02:40;;;;;;;2.42;2.00;;;;;;;19.27;37.42;97423.75;10095135;29;20049;-58
2022/03/07 11:08:00;;;;;;;4.15;2.17;;;;;;;19.27;37.58;97409.44;10095723;29;20044;-58
2022/03/07 11:13:26;;;;;;;4.78;2.20;;;;;;;19.26;37.63;97410.53;10094804;29;20060;-58
2022/03/07 11:18:52;;;;;;;3.30;2.25;;;;;;;19.25;37.64;97403.53;10099573;29;20053;-58
2022/03/07 11:24:12;;;;;;;2.97;1.95;;;;;;;19.24;37.60;97400.03;10089657;29;20061;-58
2022/03/07 11:29:36;;;;;;;3.88;2.20;;;;;;;19.23;37.70;97392.22;10085358;29;20068;-58
2022/03/07 11:34:58;;;;;;;3.40;1.80;;;;;;;19.22;37.56;97398.75;10094786;29;20468;-58
2022/03/07 11:40:23;;;;;;;3.33;2.05;;;;;;;19.21;37.60;97397.16;10094103;29;20079;-58
2022/03/07 11:45:42;;;;;;;3.78;2.03;;;;;;;19.20;37.58;97396.34;10094388;29;20068;-58
2022/03/07 11:51:02;;;;;;;5.45;2.05;;;;;;;19.19;37.73;97394.78;10102273;29;20061;-58
2022/03/07 11:56:25;;;;;;;2.58;1.85;;;;;;;19.17;37.79;97392.38;10094318;29;20066;-58
2022/03/07 12:01:52;;;;;;;2.78;1.80;;;;;;;19.18;37.69;97376.97;10094258;29;20060;-58
2022/03/07 12:07:12;;;;;;;2.65;2.10;;;;;;;19.16;37.59;97373.78;10092015;29;20497;-58
2022/03/07 12:12:32;;;;;;;2.58;1.83;;;;;;;19.14;37.74;97370.59;10100769;29;20512;-58
2022/03/07 12:17:52;;;;;;;3.80;1.90;;;;;;;19.12;37.81;97365.47;10100081;29;20129;-58
2022/03/07 12:23:12;;;;;;;2.50;1.80;;;;;;;19.13;37.71;97356.28;10098563;29;20065;-58
2022/03/07 12:28:37;;;;;;;3.10;1.70;;;;;;;19.11;37.88;97347.69;10099213;29;20053;-58
2022/03/07 12:33:57;;;;;;;2.35;1.52;;;;;;;19.11;37.74;97358.50;10101640;29;20117;-58
2022/03/07 12:39:16;;;;;;;2.78;1.60;;;;;;;19.09;37.86;97358.00;10089688;29;20049;-58
2022/03/07 12:44:37;;;;;;;2.35;1.73;;;;;;;19.08;37.72;97361.81;10101966;29;20072;-58
2022/03/07 12:49:58;;;;;;;2.67;1.77;;;;;;;19.07;37.87;97348.59;10100487;29;20505;-58
2022/03/07 12:55:18;;;;;;;2.80;2.00;;;;;;;19.06;37.85;97337.00;10100433;29;20057;-58
2022/03/07 13:00:38;;;;;;;2.13;1.40;;;;;;;19.05;37.93;97332.72;10099964;29;20057;-58
2022/03/07 13:06:01;;;;;;;2.75;1.65;;;;;;;19.05;37.83;97340.81;10099407;29;20061;-58
2022/03/07 13:11:32;;;;;;;1.70;1.52;;;;;;;19.03;37.80;97328.72;10099828;29;20079;-58
2022/03/07 13:16:52;;;;;;;2.13;1.60;;;;;;;19.01;37.82;97329.03;10098168;29;20064;-58
2022/03/07 13:22:12;;;;;;;2.47;1.70;;;;;;;19.01;37.87;97314.72;10093824;29;20420;-58
2022/03/07 13:27:31;;;;;;;1.90;1.48;;;;;;;18.99;37.84;97309.63;10094262;29;20575;-58
2022/03/07 13:32:51;;;;;;;1.95;1.55;;;;;;;18.99;37.77;97298.03;10097960;29;20052;-58
2022/03/07 13:38:21;;;;;;;2.38;1.45;;;;;;;18.97;37.91;97309.16;10099068;29;20056;-58
2022/03/07 13:43:40;;;;;;;2.08;1.70;;;;;;;18.96;37.85;97312.97;10098728;29;20068;-57
2022/03/07 13:49:04;;;;;;;2.30;1.55;;;;;;;18.95;37.83;97316.75;10099932;29;20500;-58
2022/03/07 13:54:24;;;;;;;1.77;1.30;;;;;;;18.94;37.70;97325.97;10098405;29;20409;-58
2022/03/07 13:59:59;;;;;;;2.47;1.70;;;;;;;18.91;37.86;97316.56;10099108;29;20056;-58
2022/03/07 14:05:19;;;;;;;1.48;1.38;;;;;;;18.90;37.99;97311.50;10097122;29;20071;-58
2022/03/07 14:10:39;;;;;;;1.83;1.27;;;;;;;18.89;37.91;97315.28;10096043;29;20536;-57
2022/03/07 14:15:58;;;;;;;2.33;1.67;;;;;;;18.89;37.93;97316.06;10101750;29;20049;-58
2022/03/07 14:21:17;;;;;;;1.65;1.40;;;;;;;18.88;37.67;97324.50;10081696;29;20053;-58
2022/03/07 14:26:37;;;;;;;1.35;1.20;;;;;;;18.84;37.23;97326.22;10087633;29;20045;-58
2022/03/07 14:31:59;;;;;;;2.92;1.40;;;;;;;18.83;37.41;97327.31;10098861;29;20374;-58
2022/03/07 14:37:19;;;;;;;2.33;1.30;;;;;;;18.83;37.58;97327.31;10094475;29;20049;-57
2022/03/07 14:42:40;;;;;;;3.60;1.40;;;;;;;18.82;37.48;97317.59;10095524;29;20092;-57
2022/03/07 14:47:59;;;;;;;1.98;1.33;;;;;;;18.80;37.56;97322.50;10096603;29;20191;-57
2022/03/07 14:53:19;;;;;;;1.30;1.10;;;;;;;18.81;37.63;97324.13;10096882;29;20171;-57
2022/03/07 14:58:38;;;;;;;1.92;1.20;;;;;;;18.80;37.62;97319.81;10095313;29;20060;-58
2022/03/07 15:03:58;;;;;;;2.30;1.27;;;;;;;18.81;37.46;97305.22;10095640;29;20049;-58
2022/03/07 15:09:17;;;;;;;1.27;1.17;;;;;;;18.83;37.41;97305.72;10087601;29;20200;-58
2022/03/07 15:14:37;;;;;;;1.95;1.38;;;;;;;18.84;37.62;97304.63;10086162;29;20570;-58
2022/03/07 15:19:58;;;;;;;1.35;1.10;;;;;;;18.87;37.40;97293.19;10081130;29;20054;-58
2022/03/07 15:25:17;;;;;;;1.23;1.00;;;;;;;18.89;37.36;97288.28;10093589;29;20052;-56
2022/03/07 15:30:37;;;;;;;1.58;1.27;;;;;;;18.91;37.19;97283.38;10094845;29;20052;-57
2022/03/07 15:35:57;;;;;;;1.92;1.30;;;;;;;18.94;37.34;97285.47;10096355;29;20061;-57
2022/03/07 15:41:17;;;;;;;1.23;1.00;;;;;;;18.98;37.18;97293.75;10108943;29;20424;-57
2022/03/07 15:46:37;;;;;;;1.40;1.10;;;;;;;18.99;37.01;97293.44;10097283;29;20049;-57
2022/03/07 15:51:57;;;;;;;1.52;1.30;;;;;;;19.03;37.13;97294.41;10094689;29;20425;-58
2022/03/07 15:57:17;;;;;;;1.40;1.30;;;;;;;19.06;36.78;97288.41;10093549;29;20060;-58
2022/03/07 16:02:38;;;;;;;2.22;1.45;;;;;;;19.08;36.92;97290.81;10089281;29;20057;-57
2022/03/07 16:07:59;;;;;;;2.47;1.33;;;;;;;19.13;36.62;97288.78;10099293;29;20091;-58
2022/03/07 16:13:24;;;;;;;1.95;1.40;;;;;;;19.16;36.88;97293.53;10098336;29;20053;-58
2022/03/07 16:18:43;;;;;;;2.22;1.30;;;;;;;19.21;36.65;97294.50;10100505;29;20622;-58
2022/03/07 16:24:03;;;;;;;2.58;1.20;;;;;;;19.22;36.59;97294.22;10092878;29;20386;-56
2022/03/07 16:29:23;;;;;;;2.50;1.85;;;;;;;19.00;31.39;97299.66;10074022;29;20048;-58
2022/03/07 16:34:42;;;;;;;2.75;1.55;;;;;;;19.04;34.45;97297.94;10090607;29;20041;-57
2022/03/07 16:40:03;;;;;;;1.75;1.42;;;;;;;19.13;34.63;97304.97;10095469;29;20041;-58
2022/03/07 16:45:23;;;;;;;1.60;1.35;;;;;;;19.21;34.62;97316.13;10089696;29;20063;-58
2022/03/07 16:50:42;;;;;;;2.10;1.48;;;;;;;19.29;34.62;97323.50;10076918;29;20057;-58
2022/03/07 16:56:02;;;;;;;1.95;1.20;;;;;;;19.34;34.70;97320.66;10078143;29;20056;-58
2022/03/07 17:01:24;;;;;;;1.70;1.23;;;;;;;19.40;34.92;97330.22;10070211;29;20053;-58
2022/03/07 17:06:43;;;;;;;1.50;1.40;;;;;;;19.47;35.06;97341.38;10081749;29;20053;-58
2022/03/07 17:12:04;;;;;;;3.13;1.33;;;;;;;19.51;35.21;97339.66;10097726;29;20074;-57
2022/03/07 17:17:24;;;;;;;1.55;1.17;;;;;;;19.54;35.37;97344.44;10096788;29;20903;-57
2022/03/07 17:22:43;;;;;;;2.10;1.40;;;;;;;19.58;35.51;97344.59;10085729;29;20068;-57
2022/03/07 17:28:03;;;;;;;2.17;1.23;;;;;;;19.64;35.34;97353.38;10084419;29;20095;-57
2022/03/07 17:33:23;;;;;;;1.58;1.38;;;;;;;19.69;35.40;97353.25;10090620;29;20108;-56
2022/03/07 17:38:44;;;;;;;1.30;1.20;;;;;;;19.74;35.34;97358.56;10110520;29;20052;-57
2022/03/07 17:44:04;;;;;;;1.48;1.10;;;;;;;19.79;35.36;97358.41;10098691;29;20068;-58
2022/03/07 17:49:24;;;;;;;2.67;1.45;;;;;;;19.83;35.24;97370.19;10084540;29;20054;-58
2022/03/07 17:54:43;;;;;;;3.35;1.45;;;;;;;19.86;35.36;97369.56;10093365;29;20048;-57
2022/03/07 18:00:09;;;;;;;1.40;1.10;;;;;;;19.91;35.38;97377.53;10103522;29;20056;-58
2022/03/07 18:05:32;;;;;;;1.98;1.77;;;;;;;19.91;34.67;97382.94;10093415;29;20052;-57
2022/03/07 18:10:52;;;;;;;1.73;1.40;;;;;;;19.94;34.87;97382.31;10091573;29;20045;-56
2022/03/07 18:16:11;;;;;;;2.55;1.50;;;;;;;20.00;34.77;97380.28;10093441;29;20052;-57
2022/03/07 18:21:31;;;;;;;3.30;1.50;;;;;;;20.03;35.03;97385.09;10093405;29;20049;-53
2022/03/07 18:26:51;;;;;;;3.03;1.70;;;;;;;20.06;35.74;97387.16;10094913;29;20063;-50
2022/03/07 18:32:13;;;;;;;2.03;1.17;;;;;;;20.10;35.99;97393.53;10061257;29;20067;-51
2022/03/07 18:37:33;;;;;;;2.70;1.20;;;;;;;20.16;36.26;97402.28;10081150;29;20050;-52
2022/03/07 18:42:53;;;;;;;3.35;1.38;;;;;;;20.22;36.47;97405.66;10079643;29;20045;-51
2022/03/07 18:48:13;;;;;;;2.35;1.20;;;;;;;20.25;36.57;97407.75;10083218;29;20474;-56
2022/03/07 18:53:33;;;;;;;4.97;1.48;;;;;;;20.29;36.79;97406.00;10076403;29;20049;-59
2022/03/07 18:58:52;;;;;;;4.32;1.30;;;;;;;20.31;36.82;97401.88;10083096;29;20049;-56
2022/03/07 19:04:12;;;;;;;4.10;1.45;;;;;;;20.33;36.83;97415.09;10091999;29;20042;-57
2022/03/07 19:09:32;;;;;;;1.80;1.48;;;;;;;20.37;36.50;97412.56;10063960;29;20628;-57
2022/03/07 19:14:51;;;;;;;1.98;1.05;;;;;;;20.38;36.27;97420.34;10065806;29;20421;-57
2022/03/07 19:20:15;;;;;;;3.38;1.10;;;;;;;20.40;36.10;97411.91;10058084;29;20054;-56
2022/03/07 19:25:34;;;;;;;3.50;1.52;;;;;;;20.41;36.44;97410.81;10068395;29;20046;-58
2022/03/07 19:30:54;;;;;;;5.18;1.63;;;;;;;20.42;36.99;97425.91;10075085;29;20056;-55
2022/03/07 19:36:15;;;;;;;4.10;1.45;;;;;;;20.41;37.15;97421.63;10083882;29;20052;-54
2022/03/07 19:41:34;;;;;;;4.43;1.77;;;;;;;20.42;37.37;97434.03;10069181;29;20053;-55
2022/03/07 19:46:54;;;;;;;7.13;1.30;;;;;;;20.42;37.54;97434.03;10069463;29;20078;-57
2022/03/07 19:52:13;;;;;;;3.75;1.40;;;;;;;20.42;37.41;97439.44;10076452;29;20053;-58
2022/03/07 19:57:33;;;;;;;3.78;1.58;;;;;;;20.42;37.67;97440.25;10085976;29;20056;-58
2022/03/07 20:02:53;;;;;;;7.50;1.92;;;;;;;20.44;37.85;97445.34;10089332;29;20059;-57
2022/03/07 20:08:12;;;;;;;5.30;1.38;;;;;;;20.43;38.06;97443.78;10089299;29;20398;-56
2022/03/07 20:13:33;;;;;;;3.05;1.50;;;;;;;20.43;38.24;97441.06;10088832;29;20113;-57
2022/03/07 20:18:53;;;;;;;4.25;1.52;;;;;;;20.43;38.50;97441.06;10086404;29;20061;-55
2022/03/07 20:24:13;;;;;;;4.38;1.50;;;;;;;20.44;38.41;97439.94;10083043;29;20388;-56
2022/03/07 20:29:33;;;;;;;1.83;1.38;;;;;;;20.43;38.68;97447.25;10096267;29;20053;-57
2022/03/07 20:34:52;;;;;;;4.57;1.80;;;;;;;20.43;38.86;97443.78;10095873;29;20114;-56
2022/03/07 20:40:12;;;;;;;6.88;1.60;;;;;;;20.43;38.86;97451.88;10100577;29;20041;-56
2022/03/07 20:45:32;;;;;;;4.93;1.80;;;;;;;20.42;38.92;97445.66;10096528;29;20067;-55
2022/03/07 20:50:52;;;;;;;3.80;1.48;;;;;;;20.41;39.03;97446.78;10097239;29;20053;-57
2022/03/07 20:56:12;;;;;;;3.72;1.33;;;;;;;20.39;38.92;97440.88;10094166;29;20060;-56
2022/03/07 21:01:32;;;;;;;2.38;1.35;;;;;;;20.41;38.96;97444.06;10095229;29;20780;-56
2022/03/07 21:06:51;;;;;;;4.72;1.65;;;;;;;20.39;38.92;97440.88;10086458;29;20129;-56
2022/03/07 21:12:11;;;;;;;13.45;1.30;;;;;;;20.40;39.04;97447.09;10088919;29;20113;-57
2022/03/07 21:17:31;;;;;;;5.32;1.42;;;;;;;20.39;38.85;97442.81;10097553;29;20047;-55
2022/03/07 21:22:51;;;;;;;2.90;1.40;;;;;;;20.38;38.83;97452.03;10080502;29;20481;-57
2022/03/07 21:28:10;;;;;;;3.47;1.27;;;;;;;20.36;38.88;97455.03;10096834;29;20051;-58
2022/03/07 21:33:30;;;;;;;2.90;1.27;;;;;;;20.34;38.75;97451.84;10091512;29;20109;-56
2022/03/07 21:38:49;;;;;;;2.63;1.40;;;;;;;20.32;38.87;97457.56;10095798;29;20454;-56
2022/03/07 21:44:11;;;;;;;4.10;1.10;;;;;;;20.31;38.93;97461.41;10091460;29;20557;-57
2022/03/07 21:49:31;;;;;;;4.53;1.30;;;;;;;20.29;38.94;97460.91;10094859;29;20045;-57
2022/03/07 21:54:50;;;;;;;3.72;1.15;;;;;;;20.28;38.82;97459.31;10082987;29;20057;-56
2022/03/07 22:00:12;;;;;;;2.03;1.20;;;;;;;20.29;38.75;97452.00;10094495;29;20041;-57
2022/03/07 22:05:31;;;;;;;2.65;1.42;;;;;;;20.28;38.94;97461.22;10093311;29;20061;-57
2022/03/07 22:10:51;;;;;;;3.30;1.48;;;;;;;20.28;38.89;97453.88;10096062;29;20068;-57
2022/03/07 22:16:11;;;;;;;4.47;1.30;;;;;;;20.25;39.09;97454.53;10094059;29;20449;-57
2022/03/07 22:21:32;;;;;;;3.45;1.55;;;;;;;20.24;39.13;97461.03;10091235;29;20505;-57
2022/03/07 22:26:51;;;;;;;4.07;1.27;;;;;;;20.23;39.13;97459.47;10092585;29;20492;-57
2022/03/07 22:32:10;;;;;;;2.38;1.40;;;;;;;20.22;39.32;97460.56;10094510;29;20258;-57
2022/03/07 22:37:30;;;;;;;1.98;1.23;;;;;;;20.21;39.33;97461.69;10097353;29;20052;-57
2022/03/07 22:42:50;;;;;;;2.00;1.27;;;;;;;20.19;39.45;97469.31;10093456;29;20501;-57
2022/03/07 22:48:11;;;;;;;2.58;1.30;;;;;;;20.18;39.61;97467.69;10092046;29;20057;-57
2022/03/07 22:53:33;;;;;;;4.10;1.30;;;;;;;20.17;39.40;97468.00;10096417;29;20580;-57
2022/03/07 22:58:53;;;;;;;5.50;1.35;;;;;;;20.14;39.49;97467.53;10091684;29;20108;-57
2022/03/07 23:04:12;;;;;;;5.38;1.40;;;;;;;20.14;39.48;97470.22;10093495;29;20056;-57
2022/03/07 23:09:32;;;;;;;2.72;1.38;;;;;;;20.11;39.73;97470.03;10095194;29;20116;-57
2022/03/07 23:14:51;;;;;;;1.52;1.20;;;;;;;20.10;39.41;97466.56;10106071;29;20676;-57
2022/03/07 23:20:11;;;;;;;2.17;1.40;;;;;;;20.08;39.62;97467.97;10096377;29;20057;-57
2022/03/07 23:25:32;;;;;;;2.03;1.25;;;;;;;20.06;39.56;97465.59;10089351;29;20053;-57
2022/03/07 23:30:51;;;;;;;2.65;1.30;;;;;;;20.05;39.47;97458.59;10114360;29;20049;-57
2022/03/07 23:36:11;;;;;;;3.97;1.30;;;;;;;20.03;39.42;97457.28;10091870;29;20067;-56
2022/03/07 23:41:31;;;;;;;2.13;1.35;;;;;;;20.02;39.65;97450.28;10093914;29;20053;-57
2022/03/07 23:46:50;;;;;;;2.10;1.00;;;;;;;20.00;39.47;97461.41;10093718;29;20564;-57
2022/03/07 23:52:10;;;;;;;3.13;1.38;;;;;;;19.99;39.73;97459.03;10105155;29;20081;-57
2022/03/07 23:57:30;;;;;;;2.20;1.30;;;;;;;19.97;39.64;97455.81;10102491;29;20417;-57
